sensor_id;sensor_type;location;lat;lon;timestamp;pressure;altitude;pressure_sealevel;temperature;humidity
39105;BME280;46464;51.154;13.812;2023-03-23T00:01:15;52098.31;;;-146.96;54.44
39105;BME280;46464;51.154;13.812;2023-03-23T00:03:49;52110.53;;;-146.96;54.41
39105;BME280;46464;51.154;13.812;2023-03-23T00:06:16;52122.72;;;-146.96;54.56
39105;BME280;46464;51.154;13.812;2023-03-23T00:08:47;52116.63;;;-146.96;53.82
39105;BME280;46464;51.154;13.812;2023-03-23T00:11:17;52098.31;;;-146.96;54.05
39105;BME280;46464;51.154;13.812;2023-03-23T00:13:51;52108.47;;;-146.96;53.88
39105;BME280;46464;51.154;13.812;2023-03-23T00:16:19;52126.78;;;-146.96;53.68
39105;BME280;46464;51.154;13.812;2023-03-23T00:18:51;52128.81;;;-146.96;53.08
39105;BME280;46464;51.154;13.812;2023-03-23T00:21:22;52114.59;;;-146.96;53.35
39105;BME280;46464;51.154;13.812;2023-03-23T00:23:53;52136.97;;;-146.96;53.54
39105;BME280;46464;51.154;13.812;2023-03-23T00:26:19;52139.00;;;-146.96;53.48
39105;BME280;46464;51.154;13.812;2023-03-23T00:28:44;52094.25;;;-146.96;53.97
39105;BME280;46464;51.154;13.812;2023-03-23T00:31:11;52090.16;;;-146.96;53.83
39105;BME280;46464;51.154;13.812;2023-03-23T00:33:38;52118.66;;;-146.96;53.77
39105;BME280;46464;51.154;13.812;2023-03-23T00:36:08;52126.78;;;-146.96;53.70
39105;BME280;46464;51.154;13.812;2023-03-23T00:38:34;52128.81;;;-146.96;53.62
39105;BME280;46464;51.154;13.812;2023-03-23T00:40:59;52102.38;;;-146.96;54.15
39105;BME280;46464;51.154;13.812;2023-03-23T00:43:28;52106.44;;;-146.96;53.91
39105;BME280;46464;51.154;13.812;2023-03-23T00:45:56;52122.72;;;-146.96;54.24
39105;BME280;46464;51.154;13.812;2023-03-23T00:48:22;52088.13;;;-146.96;53.91
39105;BME280;46464;51.154;13.812;2023-03-23T00:50:49;52114.59;;;-146.96;54.12
39105;BME280;46464;51.154;13.812;2023-03-23T00:53:15;52122.72;;;-146.96;53.96
39105;BME280;46464;51.154;13.812;2023-03-23T00:55:42;52098.31;;;-146.96;54.13
39105;BME280;46464;51.154;13.812;2023-03-23T00:58:08;52088.13;;;-146.96;53.25
39105;BME280;46464;51.154;13.812;2023-03-23T01:00:34;52153.25;;;-146.96;53.16
39105;BME280;46464;51.154;13.812;2023-03-23T01:03:00;52098.31;;;-146.96;53.45
39105;BME280;46464;51.154;13.812;2023-03-23T01:05:25;52090.16;;;-146.96;53.74
39105;BME280;46464;51.154;13.812;2023-03-23T01:07:57;52126.78;;;-146.96;53.65
39105;BME280;46464;51.154;13.812;2023-03-23T01:10:23;52147.13;;;-146.96;53.97
39105;BME280;46464;51.154;13.812;2023-03-23T01:12:52;52106.44;;;-146.96;53.90
39105;BME280;46464;51.154;13.812;2023-03-23T01:15:18;52126.78;;;-146.96;53.13
39105;BME280;46464;51.154;13.812;2023-03-23T01:17:44;52149.19;;;-146.96;53.52
39105;BME280;46464;51.154;13.812;2023-03-23T01:20:14;52084.06;;;-146.96;53.25
39105;BME280;46464;51.154;13.812;2023-03-23T01:22:41;52128.81;;;-146.96;53.68
39105;BME280;46464;51.154;13.812;2023-03-23T01:25:07;52118.66;;;-146.96;54.09
39105;BME280;46464;51.154;13.812;2023-03-23T01:27:33;52075.94;;;-146.96;54.15
39105;BME280;46464;51.154;13.812;2023-03-23T01:29:59;52145.09;;;-146.96;53.85
39105;BME280;46464;51.154;13.812;2023-03-23T01:32:25;52104.41;;;-146.96;53.72
39105;BME280;46464;51.154;13.812;2023-03-23T01:34:50;52143.06;;;-146.96;54.19
39105;BME280;46464;51.154;13.812;2023-03-23T01:37:16;52102.38;;;-146.96;54.13
39105;BME280;46464;51.154;13.812;2023-03-23T01:39:41;52130.88;;;-146.96;54.17
39105;BME280;46464;51.154;13.812;2023-03-23T01:42:08;52141.03;;;-146.96;54.40
39105;BME280;46464;51.154;13.812;2023-03-23T01:46:59;52139.00;;;-146.96;54.63
39105;BME280;46464;51.154;13.812;2023-03-23T01:49:35;52163.41;;;-146.96;54.89
39105;BME280;46464;51.154;13.812;2023-03-23T01:52:08;52134.94;;;-146.96;54.98
39105;BME280;46464;51.154;13.812;2023-03-23T01:54:36;52122.72;;;-146.96;55.04
39105;BME280;46464;51.154;13.812;2023-03-23T01:57:11;52155.28;;;-146.96;55.14
39105;BME280;46464;51.154;13.812;2023-03-23T01:59:39;52151.22;;;-146.96;55.31
39105;BME280;46464;51.154;13.812;2023-03-23T02:02:08;52136.97;;;-146.96;55.43
39105;BME280;46464;51.154;13.812;2023-03-23T02:04:36;52145.09;;;-146.96;55.79
39105;BME280;46464;51.154;13.812;2023-03-23T02:07:02;52151.22;;;-146.96;55.84
39105;BME280;46464;51.154;13.812;2023-03-23T02:09:28;52145.09;;;-146.96;55.87
39105;BME280;46464;51.154;13.812;2023-03-23T02:11:54;52098.31;;;-146.96;55.91
39105;BME280;46464;51.154;13.812;2023-03-23T02:14:21;52128.81;;;-146.96;55.86
39105;BME280;46464;51.154;13.812;2023-03-23T02:16:50;52151.22;;;-146.96;56.13
39105;BME280;46464;51.154;13.812;2023-03-23T02:24:59;52104.41;;;-146.96;55.92
39105;BME280;46464;51.154;13.812;2023-03-23T02:30:08;52141.03;;;-146.96;55.98
39105;BME280;46464;51.154;13.812;2023-03-23T02:38:13;52177.66;;;-146.96;56.01
39105;BME280;46464;51.154;13.812;2023-03-23T02:40:48;52165.44;;;-146.96;55.88
39105;BME280;46464;51.154;13.812;2023-03-23T02:43:17;52126.78;;;-146.96;55.60
39105;BME280;46464;51.154;13.812;2023-03-23T02:45:44;52159.34;;;-146.96;56.11
39105;BME280;46464;51.154;13.812;2023-03-23T02:48:13;52175.63;;;-146.96;56.01
39105;BME280;46464;51.154;13.812;2023-03-23T02:50:42;52179.69;;;-146.96;56.25
39105;BME280;46464;51.154;13.812;2023-03-23T02:53:10;52159.34;;;-146.96;55.86
39105;BME280;46464;51.154;13.812;2023-03-23T02:55:40;52136.97;;;-146.96;56.11
39105;BME280;46464;51.154;13.812;2023-03-23T02:58:10;52171.56;;;-146.96;56.02
39105;BME280;46464;51.154;13.812;2023-03-23T03:00:36;52183.75;;;-146.96;56.25
39105;BME280;46464;51.154;13.812;2023-03-23T03:03:04;52181.72;;;-146.96;55.83
39105;BME280;46464;51.154;13.812;2023-03-23T03:05:43;52157.31;;;-146.96;55.48
39105;BME280;46464;51.154;13.812;2023-03-23T03:08:13;52173.59;;;-146.96;55.43
39105;BME280;46464;51.154;13.812;2023-03-23T03:10:49;52175.63;;;-146.96;54.76
39105;BME280;46464;51.154;13.812;2023-03-23T03:16:01;52187.84;;;-146.96;55.01
39105;BME280;46464;51.154;13.812;2023-03-23T03:18:51;52147.13;;;-146.96;54.94
39105;BME280;46464;51.154;13.812;2023-03-23T03:21:19;52214.28;;;-146.96;54.76
39105;BME280;46464;51.154;13.812;2023-03-23T03:23:54;52143.06;;;-146.96;54.67
39105;BME280;46464;51.154;13.812;2023-03-23T03:26:22;52175.63;;;-146.96;54.56
39105;BME280;46464;51.154;13.812;2023-03-23T03:28:51;52179.69;;;-146.96;53.93
39105;BME280;46464;51.154;13.812;2023-03-23T03:31:19;52128.81;;;-146.96;54.08
39105;BME280;46464;51.154;13.812;2023-03-23T03:33:45;52151.22;;;-146.96;54.23
39105;BME280;46464;51.154;13.812;2023-03-23T03:36:17;52175.63;;;-146.96;54.44
39105;BME280;46464;51.154;13.812;2023-03-23T03:38:45;52179.69;;;-146.96;54.00
39105;BME280;46464;51.154;13.812;2023-03-23T03:41:12;52161.38;;;-146.96;53.47
39105;BME280;46464;51.154;13.812;2023-03-23T03:43:37;52151.22;;;-146.96;53.80
39105;BME280;46464;51.154;13.812;2023-03-23T03:46:03;52126.78;;;-146.96;53.88
39105;BME280;46464;51.154;13.812;2023-03-23T03:48:28;52147.13;;;-146.96;53.56
39105;BME280;46464;51.154;13.812;2023-03-23T03:50:54;52102.38;;;-146.96;52.94
39105;BME280;46464;51.154;13.812;2023-03-23T03:53:22;52159.34;;;-146.96;51.99
39105;BME280;46464;51.154;13.812;2023-03-23T03:55:48;52110.53;;;-146.96;51.56
39105;BME280;46464;51.154;13.812;2023-03-23T03:58:15;52096.28;;;-146.96;51.52
39105;BME280;46464;51.154;13.812;2023-03-23T04:00:41;52100.34;;;-146.96;51.59
39105;BME280;46464;51.154;13.812;2023-03-23T04:03:07;52128.81;;;-146.96;51.33
39105;BME280;46464;51.154;13.812;2023-03-23T04:05:34;52134.94;;;-146.96;49.79
39105;BME280;46464;51.154;13.812;2023-03-23T04:08:02;52051.50;;;-146.96;50.27
39105;BME280;46464;51.154;13.812;2023-03-23T04:10:28;52092.22;;;-146.96;49.81
39105;BME280;46464;51.154;13.812;2023-03-23T04:12:54;52067.78;;;-146.96;49.76
39105;BME280;46464;51.154;13.812;2023-03-23T04:15:20;52114.59;;;-146.96;49.87
39105;BME280;46464;51.154;13.812;2023-03-23T04:17:45;52075.94;;;-146.96;49.75
39105;BME280;46464;51.154;13.812;2023-03-23T04:20:11;52084.06;;;-146.96;50.05
39105;BME280;46464;51.154;13.812;2023-03-23T04:22:44;52082.03;;;-146.96;50.03
39105;BME280;46464;51.154;13.812;2023-03-23T04:25:15;52082.03;;;-146.96;50.72
39105;BME280;46464;51.154;13.812;2023-03-23T04:27:43;52094.25;;;-146.96;50.17
39105;BME280;46464;51.154;13.812;2023-03-23T04:30:10;52088.13;;;-146.96;50.69
39105;BME280;46464;51.154;13.812;2023-03-23T04:32:36;52098.31;;;-146.96;50.38
39105;BME280;46464;51.154;13.812;2023-03-23T04:35:06;52051.50;;;-146.96;50.52
39105;BME280;46464;51.154;13.812;2023-03-23T04:37:32;52094.25;;;-146.96;50.71
39105;BME280;46464;51.154;13.812;2023-03-23T04:39:58;52055.59;;;-146.96;50.59
39105;BME280;46464;51.154;13.812;2023-03-23T04:42:30;52055.59;;;-146.96;50.89
39105;BME280;46464;51.154;13.812;2023-03-23T04:44:57;52053.53;;;-146.96;50.83
39105;BME280;46464;51.154;13.812;2023-03-23T04:47:24;52090.16;;;-146.96;51.12
39105;BME280;46464;51.154;13.812;2023-03-23T04:49:50;52090.16;;;-146.96;51.11
39105;BME280;46464;51.154;13.812;2023-03-23T04:52:17;52088.13;;;-146.96;50.59
39105;BME280;46464;51.154;13.812;2023-03-23T04:54:43;52071.84;;;-146.96;50.15
39105;BME280;46464;51.154;13.812;2023-03-23T04:57:08;52086.09;;;-146.96;50.87
39105;BME280;46464;51.154;13.812;2023-03-23T04:59:34;52092.22;;;-146.96;51.06
39105;BME280;46464;51.154;13.812;2023-03-23T05:01:59;52025.06;;;-146.96;51.07
39105;BME280;46464;51.154;13.812;2023-03-23T05:04:25;52120.69;;;-146.96;51.46
39105;BME280;46464;51.154;13.812;2023-03-23T05:06:51;52059.66;;;-146.96;50.36
39105;BME280;46464;51.154;13.812;2023-03-23T05:09:16;52077.97;;;-146.96;50.55
39105;BME280;46464;51.154;13.812;2023-03-23T05:11:42;52090.16;;;-146.96;49.97
39105;BME280;46464;51.154;13.812;2023-03-23T05:14:08;52090.16;;;-146.96;50.07
39105;BME280;46464;51.154;13.812;2023-03-23T05:16:33;52061.69;;;-146.96;50.36
39105;BME280;46464;51.154;13.812;2023-03-23T05:19:02;52065.75;;;-146.96;50.41
39105;BME280;46464;51.154;13.812;2023-03-23T05:21:27;52055.59;;;-146.96;50.33
39105;BME280;46464;51.154;13.812;2023-03-23T05:23:53;52084.06;;;-146.96;50.57
39105;BME280;46464;51.154;13.812;2023-03-23T05:26:20;52084.06;;;-146.96;49.89
39105;BME280;46464;51.154;13.812;2023-03-23T05:28:46;52049.47;;;-146.96;49.48
39105;BME280;46464;51.154;13.812;2023-03-23T05:31:11;52092.22;;;-146.96;50.58
39105;BME280;46464;51.154;13.812;2023-03-23T05:33:38;52082.03;;;-146.96;49.63
39105;BME280;46464;51.154;13.812;2023-03-23T05:36:04;52065.75;;;-146.96;50.11
39105;BME280;46464;51.154;13.812;2023-03-23T05:38:32;52092.22;;;-146.96;49.16
39105;BME280;46464;51.154;13.812;2023-03-23T05:41:00;52053.53;;;-146.96;49.07
39105;BME280;46464;51.154;13.812;2023-03-23T05:43:26;52037.28;;;-146.96;49.24
39105;BME280;46464;51.154;13.812;2023-03-23T05:45:52;52057.63;;;-146.96;48.87
39105;BME280;46464;51.154;13.812;2023-03-23T05:48:18;52047.44;;;-146.96;49.42
39105;BME280;46464;51.154;13.812;2023-03-23T05:50:43;52073.91;;;-146.96;49.30
39105;BME280;46464;51.154;13.812;2023-03-23T05:53:09;52092.22;;;-146.96;49.27
39105;BME280;46464;51.154;13.812;2023-03-23T05:55:35;52063.72;;;-146.96;49.73
39105;BME280;46464;51.154;13.812;2023-03-23T05:58:00;52059.66;;;-146.96;49.40
39105;BME280;46464;51.154;13.812;2023-03-23T06:00:26;52053.53;;;-146.96;49.06
39105;BME280;46464;51.154;13.812;2023-03-23T06:02:56;52023.03;;;-146.96;49.20
39105;BME280;46464;51.154;13.812;2023-03-23T06:05:24;52047.44;;;-146.96;49.16
39105;BME280;46464;51.154;13.812;2023-03-23T06:07:51;52045.41;;;-146.96;48.70
39105;BME280;46464;51.154;13.812;2023-03-23T06:10:17;52021.00;;;-146.96;48.43
39105;BME280;46464;51.154;13.812;2023-03-23T06:12:43;52061.69;;;-146.96;48.63
39105;BME280;46464;51.154;13.812;2023-03-23T06:15:09;52063.72;;;-146.96;49.10
39105;BME280;46464;51.154;13.812;2023-03-23T06:17:35;52004.72;;;-146.96;48.84
39105;BME280;46464;51.154;13.812;2023-03-23T06:20:02;52033.19;;;-146.96;48.45
39105;BME280;46464;51.154;13.812;2023-03-23T06:22:29;52037.28;;;-146.96;47.56
39105;BME280;46464;51.154;13.812;2023-03-23T06:24:55;52041.34;;;-146.96;48.30
39105;BME280;46464;51.154;13.812;2023-03-23T06:27:22;52031.16;;;-146.96;49.47
39105;BME280;46464;51.154;13.812;2023-03-23T06:29:48;52053.53;;;-146.96;48.71
39105;BME280;46464;51.154;13.812;2023-03-23T06:32:14;51992.50;;;-146.96;49.51
39105;BME280;46464;51.154;13.812;2023-03-23T06:34:40;52067.78;;;-146.96;48.87
39105;BME280;46464;51.154;13.812;2023-03-23T06:37:09;52071.84;;;-146.96;47.88
39105;BME280;46464;51.154;13.812;2023-03-23T06:39:35;52031.16;;;-146.96;48.44
39105;BME280;46464;51.154;13.812;2023-03-23T06:42:03;52008.78;;;-146.96;49.05
39105;BME280;46464;51.154;13.812;2023-03-23T06:44:29;52000.66;;;-146.96;48.23
39105;BME280;46464;51.154;13.812;2023-03-23T06:46:54;52047.44;;;-146.96;48.33
39105;BME280;46464;51.154;13.812;2023-03-23T06:49:20;52010.81;;;-146.96;48.35
39105;BME280;46464;51.154;13.812;2023-03-23T06:51:45;52045.41;;;-146.96;47.94
39105;BME280;46464;51.154;13.812;2023-03-23T06:54:11;52021.00;;;-146.96;48.38
39105;BME280;46464;51.154;13.812;2023-03-23T06:56:36;52041.34;;;-146.96;48.18
39105;BME280;46464;51.154;13.812;2023-03-23T06:59:02;52029.13;;;-146.96;47.99
39105;BME280;46464;51.154;13.812;2023-03-23T07:01:28;52010.81;;;-146.96;47.80
39105;BME280;46464;51.154;13.812;2023-03-23T07:03:54;52035.25;;;-146.96;47.95
39105;BME280;46464;51.154;13.812;2023-03-23T07:06:21;51964.03;;;-146.96;47.75
39105;BME280;46464;51.154;13.812;2023-03-23T07:08:46;51988.44;;;-146.96;48.24
39105;BME280;46464;51.154;13.812;2023-03-23T07:11:12;52000.66;;;-146.96;48.21
39105;BME280;46464;51.154;13.812;2023-03-23T07:13:38;51996.59;;;-146.96;47.53
39105;BME280;46464;51.154;13.812;2023-03-23T07:16:05;51998.63;;;-146.96;47.36
39105;BME280;46464;51.154;13.812;2023-03-23T07:18:31;52004.72;;;-146.96;47.65
39105;BME280;46464;51.154;13.812;2023-03-23T07:20:56;51951.81;;;-146.96;47.30
39105;BME280;46464;51.154;13.812;2023-03-23T07:23:22;51992.50;;;-146.96;46.56
39105;BME280;46464;51.154;13.812;2023-03-23T07:25:48;51982.34;;;-146.96;46.88
39105;BME280;46464;51.154;13.812;2023-03-23T07:28:14;51937.56;;;-146.96;46.71
39105;BME280;46464;51.154;13.812;2023-03-23T07:30:40;51964.03;;;-146.96;46.27
39105;BME280;46464;51.154;13.812;2023-03-23T07:33:07;51937.56;;;-146.96;47.18
39105;BME280;46464;51.154;13.812;2023-03-23T07:35:33;51970.13;;;-146.96;47.47
39105;BME280;46464;51.154;13.812;2023-03-23T07:37:58;52008.78;;;-146.96;46.55
39105;BME280;46464;51.154;13.812;2023-03-23T07:40:25;52023.03;;;-146.96;46.61
39105;BME280;46464;51.154;13.812;2023-03-23T07:42:53;51988.44;;;-146.96;47.13
39105;BME280;46464;51.154;13.812;2023-03-23T07:45:19;51974.19;;;-146.96;47.37
39105;BME280;46464;51.154;13.812;2023-03-23T07:47:45;51972.16;;;-146.96;47.45
39105;BME280;46464;51.154;13.812;2023-03-23T07:50:10;52037.28;;;-146.96;47.62
39105;BME280;46464;51.154;13.812;2023-03-23T07:52:37;51998.63;;;-146.96;47.66
39105;BME280;46464;51.154;13.812;2023-03-23T07:55:05;52014.88;;;-146.96;47.88
39105;BME280;46464;51.154;13.812;2023-03-23T07:57:31;52029.13;;;-146.96;47.95
39105;BME280;46464;51.154;13.812;2023-03-23T07:59:57;51984.38;;;-146.96;48.53
39105;BME280;46464;51.154;13.812;2023-03-23T08:02:23;51984.38;;;-146.96;47.91
39105;BME280;46464;51.154;13.812;2023-03-23T08:04:49;51998.63;;;-146.96;48.20
39105;BME280;46464;51.154;13.812;2023-03-23T08:07:16;51970.13;;;-146.96;48.12
39105;BME280;46464;51.154;13.812;2023-03-23T08:09:46;51976.22;;;-146.96;48.28
39105;BME280;46464;51.154;13.812;2023-03-23T08:12:13;52008.78;;;-146.96;48.30
39105;BME280;46464;51.154;13.812;2023-03-23T08:14:39;52004.72;;;-146.96;48.22
39105;BME280;46464;51.154;13.812;2023-03-23T08:17:05;52002.69;;;-146.96;48.75
39105;BME280;46464;51.154;13.812;2023-03-23T08:19:31;51992.50;;;-146.96;49.15
39105;BME280;46464;51.154;13.812;2023-03-23T08:22:01;52018.97;;;-146.96;48.54
39105;BME280;46464;51.154;13.812;2023-03-23T08:24:27;51992.50;;;-146.96;49.18
39105;BME280;46464;51.154;13.812;2023-03-23T08:26:52;51978.28;;;-146.96;48.05
39105;BME280;46464;51.154;13.812;2023-03-23T08:29:17;52008.78;;;-146.96;48.54
39105;BME280;46464;51.154;13.812;2023-03-23T08:31:43;51980.31;;;-146.96;49.01
39105;BME280;46464;51.154;13.812;2023-03-23T08:34:11;51996.59;;;-146.96;48.75
39105;BME280;46464;51.154;13.812;2023-03-23T08:36:36;51984.38;;;-146.96;49.60
39105;BME280;46464;51.154;13.812;2023-03-23T08:39:03;51966.06;;;-146.96;48.85
39105;BME280;46464;51.154;13.812;2023-03-23T08:41:30;52012.84;;;-146.96;49.09
39105;BME280;46464;51.154;13.812;2023-03-23T08:43:56;51980.31;;;-146.96;49.36
39105;BME280;46464;51.154;13.812;2023-03-23T08:46:22;51984.38;;;-146.96;49.38
39105;BME280;46464;51.154;13.812;2023-03-23T08:48:47;51992.50;;;-146.96;49.88
39105;BME280;46464;51.154;13.812;2023-03-23T08:51:13;52012.84;;;-146.96;49.87
39105;BME280;46464;51.154;13.812;2023-03-23T08:53:38;51988.44;;;-146.96;50.56
39105;BME280;46464;51.154;13.812;2023-03-23T08:56:06;52002.69;;;-146.96;51.31
39105;BME280;46464;51.154;13.812;2023-03-23T08:58:34;52029.13;;;-146.96;52.97
39105;BME280;46464;51.154;13.812;2023-03-23T09:00:59;52016.94;;;-146.96;53.87
39105;BME280;46464;51.154;13.812;2023-03-23T09:03:25;52039.31;;;-146.96;54.22
39105;BME280;46464;51.154;13.812;2023-03-23T09:05:51;52021.00;;;-146.96;55.30
39105;BME280;46464;51.154;13.812;2023-03-23T09:08:16;52033.19;;;-146.96;55.33
39105;BME280;46464;51.154;13.812;2023-03-23T09:10:42;52012.84;;;-146.96;54.78
39105;BME280;46464;51.154;13.812;2023-03-23T09:13:08;52004.72;;;-146.96;55.83
39105;BME280;46464;51.154;13.812;2023-03-23T09:15:33;52012.84;;;-146.96;56.39
39105;BME280;46464;51.154;13.812;2023-03-23T09:17:59;52027.09;;;-146.96;57.67
39105;BME280;46464;51.154;13.812;2023-03-23T09:20:27;52029.13;;;-146.96;57.63
39105;BME280;46464;51.154;13.812;2023-03-23T09:22:54;52045.41;;;-146.96;58.74
39105;BME280;46464;51.154;13.812;2023-03-23T09:25:23;52059.66;;;-146.96;59.56
39105;BME280;46464;51.154;13.812;2023-03-23T09:27:59;52006.75;;;-146.96;60.12
39105;BME280;46464;51.154;13.812;2023-03-23T09:30:29;52080.00;;;-146.96;60.63
39105;BME280;46464;51.154;13.812;2023-03-23T09:32:56;52071.84;;;-146.96;61.68
39105;BME280;46464;51.154;13.812;2023-03-23T09:35:23;52096.28;;;-146.96;61.94
39105;BME280;46464;51.154;13.812;2023-03-23T09:37:50;52082.03;;;-146.96;62.22
39105;BME280;46464;51.154;13.812;2023-03-23T09:40:22;52049.47;;;-146.96;64.22
39105;BME280;46464;51.154;13.812;2023-03-23T09:43:12;52041.34;;;-146.96;62.73
39105;BME280;46464;51.154;13.812;2023-03-23T09:51:02;52063.72;;;-146.96;64.99
39105;BME280;46464;51.154;13.812;2023-03-23T09:53:35;52031.16;;;-146.96;65.00
39105;BME280;46464;51.154;13.812;2023-03-23T09:56:09;52067.78;;;-146.96;65.05
39105;BME280;46464;51.154;13.812;2023-03-23T09:58:56;52057.63;;;-146.96;63.62
39105;BME280;46464;51.154;13.812;2023-03-23T10:01:31;52077.97;;;-146.96;63.71
39105;BME280;46464;51.154;13.812;2023-03-23T10:04:13;52041.34;;;-146.96;65.21
39105;BME280;46464;51.154;13.812;2023-03-23T10:06:41;52055.59;;;-146.96;63.18
39105;BME280;46464;51.154;13.812;2023-03-23T10:09:12;51988.44;;;-146.96;63.33
39105;BME280;46464;51.154;13.812;2023-03-23T10:11:59;52047.44;;;-146.96;63.37
39105;BME280;46464;51.154;13.812;2023-03-23T10:17:29;52029.13;;;-146.96;60.92
39105;BME280;46464;51.154;13.812;2023-03-23T10:25:52;52018.97;;;-146.96;61.98
39105;BME280;46464;51.154;13.812;2023-03-23T10:28:34;52006.75;;;-146.96;60.33
39105;BME280;46464;51.154;13.812;2023-03-23T10:31:00;52023.03;;;-146.96;60.94
39105;BME280;46464;51.154;13.812;2023-03-23T10:33:45;52002.69;;;-146.96;59.95
39105;BME280;46464;51.154;13.812;2023-03-23T10:36:24;52010.81;;;-146.96;61.36
39105;BME280;46464;51.154;13.812;2023-03-23T10:41:33;52041.34;;;-146.96;59.14
39105;BME280;46464;51.154;13.812;2023-03-23T10:43:58;52002.69;;;-146.96;58.88
39105;BME280;46464;51.154;13.812;2023-03-23T10:46:32;51980.31;;;-146.96;58.65
39105;BME280;46464;51.154;13.812;2023-03-23T10:49:05;52021.00;;;-146.96;59.00
39105;BME280;46464;51.154;13.812;2023-03-23T10:51:40;52008.78;;;-146.96;60.33
39105;BME280;46464;51.154;13.812;2023-03-23T10:54:07;52014.88;;;-146.96;60.94
39105;BME280;46464;51.154;13.812;2023-03-23T10:56:42;51998.63;;;-146.96;60.73
39105;BME280;46464;51.154;13.812;2023-03-23T10:59:27;52010.81;;;-146.96;62.14
39105;BME280;46464;51.154;13.812;2023-03-23T11:01:55;52002.69;;;-146.96;60.98
39105;BME280;46464;51.154;13.812;2023-03-23T11:04:22;52000.66;;;-146.96;60.30
39105;BME280;46464;51.154;13.812;2023-03-23T11:06:49;52016.94;;;-146.96;60.39
39105;BME280;46464;51.154;13.812;2023-03-23T11:09:17;52000.66;;;-146.96;59.77
39105;BME280;46464;51.154;13.812;2023-03-23T11:11:54;51988.44;;;-146.96;61.78
39105;BME280;46464;51.154;13.812;2023-03-23T11:14:26;52037.28;;;-146.96;61.67
39105;BME280;46464;51.154;13.812;2023-03-23T11:17:00;52006.75;;;-146.96;60.62
39105;BME280;46464;51.154;13.812;2023-03-23T11:19:32;52027.09;;;-146.96;60.18
39105;BME280;46464;51.154;13.812;2023-03-23T11:24:43;51984.38;;;-146.96;59.77
39105;BME280;46464;51.154;13.812;2023-03-23T11:27:10;52016.94;;;-146.96;59.23
39105;BME280;46464;51.154;13.812;2023-03-23T11:30:08;51998.63;;;-146.96;60.48
39105;BME280;46464;51.154;13.812;2023-03-23T11:32:29;51988.44;;;-146.96;58.73
39105;BME280;46464;51.154;13.812;2023-03-23T11:35:06;52016.94;;;-146.96;57.39
39105;BME280;46464;51.154;13.812;2023-03-23T11:37:42;52000.66;;;-146.96;58.33
39105;BME280;46464;51.154;13.812;2023-03-23T11:42:48;51962.00;;;-146.96;58.42
39105;BME280;46464;51.154;13.812;2023-03-23T11:50:44;52037.28;;;-146.96;61.22
39105;BME280;46464;51.154;13.812;2023-03-23T11:56:14;51994.53;;;-146.96;63.17
39105;BME280;46464;51.154;13.812;2023-03-23T11:58:41;52047.44;;;-146.96;64.81
39105;BME280;46464;51.154;13.812;2023-03-23T12:01:28;52033.19;;;-146.96;65.71
39105;BME280;46464;51.154;13.812;2023-03-23T12:07:19;52041.34;;;-146.96;67.01
39105;BME280;46464;51.154;13.812;2023-03-23T12:10:01;52029.13;;;-146.96;66.91
39105;BME280;46464;51.154;13.812;2023-03-23T12:15:32;52027.09;;;-146.96;67.67
39105;BME280;46464;51.154;13.812;2023-03-23T12:18:23;52065.75;;;-146.96;67.96
39105;BME280;46464;51.154;13.812;2023-03-23T12:24:12;52051.50;;;-146.96;65.87
39105;BME280;46464;51.154;13.812;2023-03-23T12:33:30;52061.69;;;-146.96;66.11
39105;BME280;46464;51.154;13.812;2023-03-23T12:35:45;52029.13;;;-146.96;67.21
39105;BME280;46464;51.154;13.812;2023-03-23T12:41:07;52033.19;;;-146.96;63.80
39105;BME280;46464;51.154;13.812;2023-03-23T12:43:52;52029.13;;;-146.96;63.89
39105;BME280;46464;51.154;13.812;2023-03-23T12:49:13;52006.75;;;-146.96;62.94
39105;BME280;46464;51.154;13.812;2023-03-23T12:51:54;52008.78;;;-146.96;62.58
39105;BME280;46464;51.154;13.812;2023-03-23T12:57:31;51994.53;;;-146.96;62.99
39105;BME280;46464;51.154;13.812;2023-03-23T13:02:50;52008.78;;;-146.96;63.27
39105;BME280;46464;51.154;13.812;2023-03-23T13:08:03;51992.50;;;-146.96;59.74
39105;BME280;46464;51.154;13.812;2023-03-23T13:10:34;51959.97;;;-146.96;60.91
39105;BME280;46464;51.154;13.812;2023-03-23T13:13:02;52000.66;;;-146.96;60.44
39105;BME280;46464;51.154;13.812;2023-03-23T13:15:51;51992.50;;;-146.96;60.21
39105;BME280;46464;51.154;13.812;2023-03-23T13:21:21;52008.78;;;-146.96;60.46
39105;BME280;46464;51.154;13.812;2023-03-23T13:24:03;52008.78;;;-146.96;59.96
39105;BME280;46464;51.154;13.812;2023-03-23T13:26:31;51988.44;;;-146.96;62.06
39105;BME280;46464;51.154;13.812;2023-03-23T13:28:59;52029.13;;;-146.96;61.04
39105;BME280;46464;51.154;13.812;2023-03-23T13:31:35;51959.97;;;-146.96;59.61
39105;BME280;46464;51.154;13.812;2023-03-23T13:34:10;51974.19;;;-146.96;60.01
39105;BME280;46464;51.154;13.812;2023-03-23T13:36:40;52008.78;;;-146.96;60.06
39105;BME280;46464;51.154;13.812;2023-03-23T13:39:28;51988.44;;;-146.96;60.06
39105;BME280;46464;51.154;13.812;2023-03-23T13:47:20;51976.22;;;-146.96;58.77
39105;BME280;46464;51.154;13.812;2023-03-23T13:49:51;51978.28;;;-146.96;58.43
39105;BME280;46464;51.154;13.812;2023-03-23T13:52:21;51962.00;;;-146.96;58.52
39105;BME280;46464;51.154;13.812;2023-03-23T13:54:47;51947.75;;;-146.96;57.98
39105;BME280;46464;51.154;13.812;2023-03-23T13:59:59;51970.13;;;-146.96;55.21
39105;BME280;46464;51.154;13.812;2023-03-23T14:02:34;51959.97;;;-146.96;54.12
39105;BME280;46464;51.154;13.812;2023-03-23T14:05:49;51945.72;;;-146.96;54.55
39105;BME280;46464;51.154;13.812;2023-03-23T14:08:21;51953.84;;;-146.96;54.20
39105;BME280;46464;51.154;13.812;2023-03-23T14:13:17;51943.69;;;-146.96;53.07